createdAt,value
2019-02-08T00:01:48.041Z,100300.00
2019-02-08T00:04:18.716Z,100292.00
2019-02-08T00:06:49.033Z,100300.00
2019-02-08T00:09:19.307Z,100301.00
2019-02-08T00:11:50.164Z,100298.00
2019-02-08T00:14:20.952Z,100292.00
2019-02-08T00:16:51.327Z,100299.00
2019-02-08T00:19:21.692Z,100303.00
2019-02-08T00:21:52.028Z,100297.00
2019-02-08T00:24:22.442Z,100301.00
2019-02-08T00:26:53.359Z,100308.00
2019-02-08T00:29:23.728Z,100305.00
2019-02-08T00:31:56.113Z,100299.00
2019-02-08T00:34:26.751Z,100298.00
2019-02-08T00:36:57.038Z,100314.00
2019-02-08T00:39:27.662Z,100308.00
2019-02-08T00:41:57.988Z,100312.00
2019-02-08T00:44:28.370Z,100312.00
2019-02-08T00:46:58.722Z,100307.00
2019-02-08T00:49:29.385Z,100301.00
2019-02-08T00:51:59.732Z,100315.00
2019-02-08T00:54:30.654Z,100307.00
2019-02-08T00:57:00.971Z,100314.00
2019-02-08T00:59:31.357Z,100301.00
2019-02-08T01:02:01.989Z,100314.00
2019-02-08T01:04:32.349Z,100308.00
2019-02-08T01:07:02.663Z,100334.00
2019-02-08T01:09:34.152Z,100318.00
2019-02-08T01:12:05.108Z,100325.00
2019-02-08T01:14:35.869Z,100318.00
2019-02-08T01:17:06.503Z,100335.00
2019-02-08T01:19:37.157Z,100326.00
2019-02-08T01:22:07.589Z,100334.00
2019-02-08T01:24:38.196Z,100315.00
2019-02-08T01:27:08.557Z,100324.00
2019-02-08T01:29:38.863Z,100324.00
2019-02-08T01:32:09.147Z,100322.00
2019-02-08T01:34:39.503Z,100310.00
2019-02-08T01:37:09.857Z,100319.00
2019-02-08T01:39:40.563Z,100318.00
2019-02-08T01:42:10.932Z,100324.00
2019-02-08T01:44:41.250Z,100325.00
2019-02-08T01:47:11.581Z,100331.00
2019-02-08T01:49:41.922Z,100325.00
2019-02-08T01:52:12.261Z,100335.00
2019-02-08T01:54:43.259Z,100336.00
2019-02-08T01:57:13.647Z,100326.00
2019-02-08T01:59:43.963Z,100326.00
2019-02-08T02:02:14.262Z,100331.00
2019-02-08T02:04:44.614Z,100346.00
2019-02-08T02:07:15.003Z,100348.00
2019-02-08T02:09:45.339Z,100342.00
2019-02-08T02:12:15.686Z,100343.00
2019-02-08T02:14:45.990Z,100338.00
2019-02-08T02:17:16.619Z,100352.00
2019-02-08T02:19:47.380Z,100344.00
2019-02-08T02:22:17.738Z,100356.00
2019-02-08T02:24:48.265Z,100354.00
2019-02-08T02:27:18.698Z,100356.00
2019-02-08T02:29:49.019Z,100355.00
2019-02-08T02:32:19.339Z,100348.00
2019-02-08T02:34:49.871Z,100346.00
2019-02-08T02:37:20.241Z,100350.00
2019-02-08T02:39:51.280Z,100371.00
2019-02-08T02:42:21.620Z,100354.00
2019-02-08T02:44:51.963Z,100353.00
2019-02-08T02:47:22.331Z,100351.00
2019-02-08T02:49:52.970Z,100360.00
2019-02-08T02:52:23.291Z,100361.00
2019-02-08T02:54:53.582Z,100362.00
2019-02-08T02:57:23.914Z,100353.00
2019-02-08T02:59:54.248Z,100355.00
2019-02-08T03:02:24.608Z,100350.00
2019-02-08T03:04:55.591Z,100344.00
2019-02-08T03:07:25.983Z,100346.00
2019-02-08T03:09:56.400Z,100350.00
2019-02-08T03:12:27.054Z,100351.00
2019-02-08T03:14:57.403Z,100348.00
2019-02-08T03:17:27.698Z,100350.00
2019-02-08T03:19:58.095Z,100350.00
2019-02-08T03:22:28.684Z,100345.00
2019-02-08T03:24:59.727Z,100357.00
2019-02-08T03:27:30.063Z,100360.00
2019-02-08T03:30:01.028Z,100354.00
2019-02-08T03:32:50.466Z,100350.00
2019-02-08T03:35:23.464Z,100354.00
2019-02-08T03:37:53.879Z,100347.00
2019-02-08T03:40:26.615Z,100345.00
2019-02-08T03:42:57.271Z,100344.00
2019-02-08T03:45:31.334Z,100350.00
2019-02-08T03:48:02.106Z,100348.00
2019-02-08T03:50:32.439Z,100350.00
2019-02-08T03:53:02.827Z,100341.00
2019-02-08T03:55:33.131Z,100340.00
2019-02-08T03:58:03.702Z,100346.00
2019-02-08T04:00:42.735Z,100341.00
2019-02-08T04:03:13.068Z,100344.00
2019-02-08T04:05:43.385Z,100345.00
2019-02-08T04:08:13.701Z,100346.00
2019-02-08T04:10:44.304Z,100343.00
2019-02-08T04:13:15.326Z,100338.00
2019-02-08T04:15:45.648Z,100336.00
2019-02-08T04:18:15.994Z,100330.00
2019-02-08T04:20:46.387Z,100324.00
2019-02-08T04:23:16.725Z,100338.00
2019-02-08T04:25:47.688Z,100331.00
2019-02-08T04:28:18.059Z,100315.00
2019-02-08T04:30:48.668Z,100314.00
2019-02-08T04:33:19.324Z,100324.00
2019-02-08T04:35:49.681Z,100314.00
2019-02-08T04:38:20.434Z,100315.00
2019-02-08T04:40:50.811Z,100334.00
2019-02-08T04:43:21.121Z,100330.00
2019-02-08T04:45:51.738Z,100320.00
2019-02-08T04:48:22.080Z,100339.00
2019-02-08T04:50:52.408Z,100330.00
2019-02-08T04:53:22.756Z,100323.00
2019-02-08T04:55:53.053Z,100334.00
2019-02-08T04:58:23.402Z,100323.00
2019-02-08T05:00:53.728Z,100333.00
2019-02-08T05:03:24.072Z,100324.00
2019-02-08T05:06:06.438Z,100331.00
2019-02-08T05:08:37.145Z,100326.00
2019-02-08T05:11:07.520Z,100330.00
2019-02-08T05:13:38.470Z,100330.00
2019-02-08T05:16:09.084Z,100320.00
2019-02-08T05:18:39.519Z,100313.00
2019-02-08T05:21:10.334Z,100307.00
2019-02-08T05:23:41.063Z,100303.00
2019-02-08T05:26:11.468Z,100300.00
2019-02-08T05:28:41.802Z,100293.00
2019-02-08T05:31:12.152Z,100296.00
2019-02-08T05:33:42.473Z,100290.00
2019-02-08T05:36:12.817Z,100284.00
2019-02-08T05:38:43.377Z,100295.00
2019-02-08T05:41:13.812Z,100305.00
2019-02-08T05:43:44.115Z,100303.00
2019-02-08T05:46:14.413Z,100301.00
2019-02-08T05:48:45.024Z,100288.00
2019-02-08T05:51:15.515Z,100302.00
2019-02-08T05:53:46.174Z,100294.00
2019-02-08T05:56:16.491Z,100292.00
2019-02-08T05:58:46.834Z,100282.00
2019-02-08T06:01:17.240Z,100282.00
2019-02-08T06:03:48.003Z,100275.00
2019-02-08T06:06:18.409Z,100276.00
2019-02-08T06:08:49.085Z,100278.00
2019-02-08T06:11:19.402Z,100278.00
2019-02-08T06:13:49.688Z,100279.00
2019-02-08T06:16:20.779Z,100276.00
2019-02-08T06:18:51.259Z,100274.00
2019-02-08T06:21:21.579Z,100270.00
2019-02-08T06:23:52.233Z,100269.00
2019-02-08T06:26:31.562Z,100268.00
2019-02-08T06:29:02.299Z,100267.00
2019-02-08T06:31:32.643Z,100270.00
2019-02-08T06:34:03.049Z,100266.00
2019-02-08T06:36:33.432Z,100271.00
2019-02-08T06:39:10.754Z,100279.00
2019-02-08T06:41:41.126Z,100274.00
2019-02-08T06:44:11.764Z,100274.00
2019-02-08T06:46:42.430Z,100271.00
2019-02-08T06:49:12.769Z,100278.00
2019-02-08T06:51:43.133Z,100280.00
2019-02-08T06:54:13.437Z,100275.00
2019-02-08T06:57:08.938Z,100277.00
2019-02-08T07:00:01.061Z,100288.00
2019-02-08T07:02:53.247Z,100286.00
2019-02-08T07:05:57.705Z,100288.00
2019-02-08T07:08:43.860Z,100272.00
2019-02-08T07:11:48.280Z,100280.00
2019-02-08T07:14:42.036Z,100284.00
2019-02-08T07:17:35.190Z,100281.00
2019-02-08T07:20:24.851Z,100287.00
2019-02-08T07:23:12.962Z,100295.00
2019-02-08T07:26:01.162Z,100288.00
2019-02-08T07:29:02.792Z,100293.00
2019-02-08T07:32:07.796Z,100290.00
2019-02-08T07:35:15.340Z,100285.00
2019-02-08T07:37:54.185Z,100288.00
2019-02-08T07:40:56.688Z,100292.00
2019-02-08T07:43:38.351Z,100292.00
2019-02-08T07:46:29.438Z,100291.00
2019-02-08T07:49:14.063Z,100299.00
2019-02-08T07:52:09.404Z,100279.00
2019-02-08T07:54:55.749Z,100287.00
2019-02-08T07:57:41.980Z,100294.00
2019-02-08T08:00:35.449Z,100292.00
2019-02-08T08:03:24.660Z,100308.00
2019-02-08T08:06:14.393Z,100302.00
2019-02-08T08:08:52.739Z,100287.00
2019-02-08T08:11:38.264Z,100288.00
2019-02-08T08:14:25.474Z,100286.00
2019-02-08T08:17:10.065Z,100288.00
2019-02-08T08:19:58.995Z,100284.00
2019-02-08T08:22:48.362Z,100291.00
2019-02-08T08:25:33.908Z,100288.00
2019-02-08T08:28:35.116Z,100286.00
2019-02-08T08:31:19.546Z,100275.00
2019-02-08T08:34:07.543Z,100282.00
2019-02-08T08:37:37.670Z,100283.00
2019-02-08T08:41:12.816Z,100278.00
2019-02-08T08:44:43.707Z,100271.00
2019-02-08T08:48:14.810Z,100279.00
2019-02-08T08:51:22.378Z,100276.00
2019-02-08T08:55:00.896Z,100270.00
2019-02-08T08:58:40.938Z,100276.00
2019-02-08T09:02:18.123Z,100276.00
2019-02-08T09:05:28.887Z,100274.00
2019-02-08T09:08:43.171Z,100259.00
2019-02-08T09:12:24.191Z,100254.00
2019-02-08T09:16:09.320Z,100253.00
2019-02-08T09:19:50.971Z,100252.00
2019-02-08T09:23:15.088Z,100245.00
2019-02-08T09:26:38.459Z,100247.00
2019-02-08T09:29:57.951Z,100247.00
2019-02-08T09:33:50.510Z,100239.00
2019-02-08T09:37:39.203Z,100229.00
2019-02-08T09:41:07.661Z,100241.00
2019-02-08T09:44:48.205Z,100215.00
2019-02-08T09:48:12.888Z,100220.00
2019-02-08T09:52:06.280Z,100222.00
2019-02-08T09:55:21.343Z,100233.00
2019-02-08T09:58:42.290Z,100223.00
2019-02-08T10:02:13.138Z,100223.00
2019-02-08T10:05:25.236Z,100235.00
2019-02-08T10:09:05.150Z,100216.00
2019-02-08T10:12:44.890Z,100223.00
2019-02-08T10:16:48.618Z,100231.00
2019-02-08T10:20:39.318Z,100230.00
2019-02-08T10:24:05.502Z,100225.00
2019-02-08T10:27:51.887Z,100222.00
2019-02-08T10:31:24.308Z,100219.00
2019-02-08T10:34:48.413Z,100216.00
2019-02-08T10:38:12.526Z,100218.00
2019-02-08T10:41:47.635Z,100231.00
2019-02-08T10:45:51.382Z,100226.00
2019-02-08T10:49:13.408Z,100215.00
2019-02-08T10:52:32.198Z,100212.00
2019-02-08T10:56:14.770Z,100211.00
2019-02-08T10:59:49.589Z,100202.00
2019-02-08T11:03:30.905Z,100200.00
2019-02-08T11:07:11.223Z,100180.00
2019-02-08T11:10:40.242Z,100185.00
2019-02-08T11:14:15.880Z,100179.00
2019-02-08T11:18:21.165Z,100174.00
2019-02-08T11:20:51.571Z,100178.00
2019-02-08T11:23:21.920Z,100173.00
2019-02-08T11:25:52.294Z,100168.00
2019-02-08T11:28:23.730Z,100164.00
2019-02-08T11:30:54.078Z,100166.00
2019-02-08T11:33:24.454Z,100153.00
2019-02-08T11:35:54.804Z,100158.00
2019-02-08T11:38:25.195Z,100142.00
2019-02-08T11:40:55.591Z,100143.00
2019-02-08T11:43:30.192Z,100129.00
2019-02-08T11:46:00.625Z,100144.00
2019-02-08T11:48:31.222Z,100144.00
2019-02-08T11:51:01.825Z,100138.00
2019-02-08T11:53:32.211Z,100136.00
2019-02-08T11:56:02.581Z,100126.00
2019-02-08T11:58:33.270Z,100128.00
2019-02-08T12:01:03.987Z,100129.00
2019-02-08T12:03:34.285Z,100121.00
2019-02-08T12:06:05.018Z,100124.00
2019-02-08T12:08:35.391Z,100115.00
2019-02-08T12:11:05.988Z,100107.00
2019-02-08T12:13:36.599Z,100108.00
2019-02-08T12:16:07.268Z,100101.00
2019-02-08T12:18:37.880Z,100099.00
2019-02-08T12:21:08.284Z,100087.00
2019-02-08T12:23:38.619Z,100092.00
2019-02-08T12:26:08.941Z,100093.00
2019-02-08T12:28:49.947Z,100080.00
2019-02-08T12:31:20.564Z,100080.00
2019-02-08T12:33:51.278Z,100076.00
2019-02-08T12:36:30.937Z,100070.00
2019-02-08T12:39:01.810Z,100070.00
2019-02-08T12:41:32.482Z,100063.00
2019-02-08T12:44:02.918Z,100060.00
2019-02-08T12:46:33.539Z,100067.00
2019-02-08T12:49:03.902Z,100053.00
2019-02-08T12:51:34.480Z,100044.00
2019-02-08T12:54:04.822Z,100045.00
2019-02-08T12:56:35.400Z,100036.00
2019-02-08T12:59:06.253Z,100032.00
2019-02-08T13:01:37.699Z,100027.00
2019-02-08T13:04:08.558Z,100029.00
2019-02-08T13:06:38.903Z,100019.00
2019-02-08T13:09:12.257Z,100013.00
2019-02-08T13:11:42.643Z,100020.00
2019-02-08T13:14:13.068Z,100004.00
2019-02-08T13:16:43.777Z,99990.00
2019-02-08T13:19:14.089Z,99996.00
2019-02-08T13:21:44.742Z,99992.00
2019-02-08T13:24:16.620Z,99984.00
2019-02-08T13:26:52.775Z,99986.00
2019-02-08T13:29:19.339Z,99980.00
2019-02-08T13:31:49.995Z,99977.00
2019-02-08T13:34:20.479Z,99968.00
2019-02-08T13:36:50.848Z,99962.00
2019-02-08T13:39:21.141Z,99964.00
2019-02-08T13:41:51.512Z,99978.00
2019-02-08T13:44:21.899Z,99956.00
2019-02-08T13:46:52.311Z,99968.00
2019-02-08T13:49:22.660Z,99953.00
2019-02-08T13:51:53.316Z,99950.00
2019-02-08T13:54:23.722Z,99940.00
2019-02-08T13:57:00.532Z,99935.00
2019-02-08T13:59:27.592Z,99942.00
2019-02-08T14:01:58.200Z,99942.00
2019-02-08T14:04:28.909Z,99944.00
2019-02-08T14:06:59.571Z,99925.00
2019-02-08T14:09:31.171Z,99935.00
2019-02-08T14:12:01.537Z,99931.00
2019-02-08T14:14:32.134Z,99919.00
2019-02-08T14:17:02.460Z,99916.00
2019-02-08T14:19:32.821Z,99911.00
2019-02-08T14:22:03.145Z,99914.00
2019-02-08T14:24:33.614Z,99918.00
2019-02-08T14:27:08.629Z,99902.00
2019-02-08T14:29:36.028Z,99906.00
2019-02-08T14:32:06.683Z,99908.00
2019-02-08T14:34:43.498Z,99900.00
2019-02-08T14:37:09.485Z,99890.00
2019-02-08T14:39:39.813Z,99883.00
2019-02-08T14:42:10.249Z,99884.00
2019-02-08T14:44:40.857Z,99860.00
2019-02-08T14:47:11.776Z,99876.00
2019-02-08T14:49:42.121Z,99858.00
2019-02-08T14:52:12.710Z,99878.00
2019-02-08T14:54:43.095Z,99874.00
2019-02-08T14:57:16.659Z,99857.00
2019-02-08T14:59:45.891Z,99860.00
2019-02-08T15:02:16.320Z,99854.00
2019-02-08T15:04:47.107Z,99866.00
2019-02-08T15:07:17.636Z,99863.00
2019-02-08T15:09:48.287Z,99864.00
2019-02-08T15:12:18.616Z,99857.00
2019-02-08T15:14:52.171Z,99854.00
2019-02-08T15:17:22.541Z,99846.00
2019-02-08T15:19:53.029Z,99839.00
2019-02-08T15:22:23.910Z,99840.00
2019-02-08T15:24:54.864Z,99832.00
2019-02-08T15:27:25.287Z,99837.00
2019-02-08T15:29:56.558Z,99834.00
2019-02-08T15:32:26.950Z,99827.00
2019-02-08T15:34:57.543Z,99836.00
2019-02-08T15:37:33.122Z,99837.00
2019-02-08T15:40:06.067Z,99830.00
2019-02-08T15:42:36.422Z,99828.00
2019-02-08T15:45:11.777Z,99826.00
2019-02-08T15:47:44.446Z,99826.00
2019-02-08T15:50:15.876Z,99819.00
2019-02-08T15:52:46.217Z,99824.00
2019-02-08T15:55:25.489Z,99824.00
2019-02-08T15:57:58.040Z,99820.00
2019-02-08T16:00:30.739Z,99803.00
2019-02-08T16:03:01.531Z,99792.00
2019-02-08T16:05:33.125Z,99799.00
2019-02-08T16:08:03.518Z,99803.00
2019-02-08T16:10:33.834Z,99802.00
2019-02-08T16:13:05.047Z,99799.00
2019-02-08T16:15:35.462Z,99803.00
2019-02-08T16:18:07.437Z,99800.00
2019-02-08T16:20:38.439Z,99796.00
2019-02-08T16:23:09.037Z,99789.00
2019-02-08T16:25:39.460Z,99798.00
2019-02-08T16:28:10.126Z,99780.00
2019-02-08T16:30:40.902Z,99794.00
2019-02-08T16:33:11.344Z,99778.00
2019-02-08T16:35:41.654Z,99773.00
2019-02-08T16:38:11.976Z,99771.00
2019-02-08T16:40:42.342Z,99759.00
2019-02-08T16:43:12.686Z,99770.00
2019-02-08T16:45:44.031Z,99766.00
2019-02-08T16:48:14.849Z,99749.00
2019-02-08T16:50:45.632Z,99752.00
2019-02-08T16:53:15.994Z,99759.00
2019-02-08T16:55:46.688Z,99738.00
2019-02-08T16:58:17.029Z,99748.00
2019-02-08T17:00:47.363Z,99755.00
2019-02-08T17:03:17.737Z,99745.00
2019-02-08T17:05:48.122Z,99752.00
2019-02-08T17:08:18.816Z,99736.00
2019-02-08T17:10:49.128Z,99738.00
2019-02-08T17:13:20.047Z,99725.00
2019-02-08T17:15:50.460Z,99720.00
2019-02-08T17:18:21.093Z,99725.00
2019-02-08T17:20:51.985Z,99715.00
2019-02-08T17:23:22.637Z,99704.00
2019-02-08T17:25:52.996Z,99715.00
2019-02-08T17:28:42.698Z,99705.00
2019-02-08T17:31:13.019Z,99685.00
2019-02-08T17:33:43.667Z,99684.00
2019-02-08T17:36:14.281Z,99662.00
2019-02-08T17:38:45.314Z,99659.00
2019-02-08T17:41:15.688Z,99667.00
2019-02-08T17:43:46.043Z,99679.00
2019-02-08T17:46:16.711Z,99673.00
2019-02-08T17:48:47.056Z,99670.00
2019-02-08T17:51:17.397Z,99658.00
2019-02-08T17:53:48.027Z,99648.00
2019-02-08T17:56:18.778Z,99655.00
2019-02-08T17:58:49.112Z,99633.00
2019-02-08T18:01:19.409Z,99652.00
2019-02-08T18:03:50.022Z,99647.00
2019-02-08T18:06:20.298Z,99644.00
2019-02-08T18:08:50.656Z,99636.00
2019-02-08T18:11:21.400Z,99633.00
2019-02-08T18:13:52.040Z,99632.00
2019-02-08T18:16:22.649Z,99638.00
2019-02-08T18:18:53.252Z,99638.00
2019-02-08T18:21:23.963Z,99627.00
2019-02-08T18:23:54.520Z,99628.00
2019-02-08T18:26:24.879Z,99618.00
2019-02-08T18:29:14.584Z,99632.00
2019-02-08T18:31:45.618Z,99625.00
2019-02-08T18:34:23.117Z,99629.00
2019-02-08T18:36:54.090Z,99635.00
2019-02-08T18:39:24.416Z,99622.00
2019-02-08T18:41:54.819Z,99614.00
2019-02-08T18:44:25.553Z,99617.00
2019-02-08T18:46:55.851Z,99610.00
2019-02-08T18:49:26.494Z,99616.00
2019-02-08T18:51:57.190Z,99612.00
2019-02-08T18:54:27.515Z,99591.00
2019-02-08T18:56:57.851Z,99593.00
2019-02-08T18:59:28.601Z,99603.00
2019-02-08T19:01:58.953Z,99589.00
2019-02-08T19:04:29.304Z,99577.00
2019-02-08T19:06:59.629Z,99578.00
2019-02-08T19:09:29.985Z,99566.00
2019-02-08T19:12:00.353Z,99555.00
2019-02-08T19:14:30.958Z,99570.00
2019-02-08T19:17:01.380Z,99545.00
2019-02-08T19:19:31.972Z,99552.00
2019-02-08T19:22:02.320Z,99551.00
2019-02-08T19:24:32.944Z,99551.00
2019-02-08T19:27:22.667Z,99537.00
2019-02-08T19:29:53.232Z,99537.00
2019-02-08T19:32:23.623Z,99540.00
2019-02-08T19:34:54.234Z,99545.00
2019-02-08T19:37:24.602Z,99527.00
2019-02-08T19:39:54.922Z,99507.00
2019-02-08T19:42:25.362Z,99517.00
2019-02-08T19:44:55.690Z,99519.00
2019-02-08T19:47:28.083Z,99510.00
2019-02-08T19:49:58.718Z,99499.00
2019-02-08T19:52:29.406Z,99509.00
2019-02-08T19:54:59.761Z,99509.00
2019-02-08T19:57:30.072Z,99488.00
2019-02-08T20:00:00.427Z,99496.00
2019-02-08T20:02:30.808Z,99480.00
2019-02-08T20:05:01.190Z,99482.00
2019-02-08T20:07:31.562Z,99475.00
2019-02-08T20:10:02.279Z,99462.00
2019-02-08T20:12:38.825Z,99448.00
2019-02-08T20:15:12.489Z,99441.00
2019-02-08T20:17:42.838Z,99446.00
2019-02-08T20:20:13.151Z,99435.00
2019-02-08T20:22:43.806Z,99434.00
2019-02-08T20:25:26.918Z,99446.00
2019-02-08T20:27:57.715Z,99439.00
2019-02-08T20:30:29.085Z,99435.00
2019-02-08T20:32:59.536Z,99434.00
2019-02-08T20:35:31.027Z,99431.00
2019-02-08T20:38:01.759Z,99429.00
2019-02-08T20:40:38.164Z,99432.00
2019-02-08T20:43:08.618Z,99423.00
2019-02-08T20:45:39.992Z,99420.00
2019-02-08T20:48:20.055Z,99410.00
2019-02-08T20:50:50.721Z,99409.00
2019-02-08T20:53:21.601Z,99409.00
2019-02-08T20:55:52.989Z,99396.00
2019-02-08T20:58:23.481Z,99389.00
2019-02-08T21:00:55.312Z,99406.00
2019-02-08T21:03:26.229Z,99394.00
2019-02-08T21:05:56.536Z,99360.00
2019-02-08T21:08:27.133Z,99349.00
2019-02-08T21:10:57.925Z,99376.00
2019-02-08T21:13:28.253Z,99373.00
2019-02-08T21:15:58.570Z,99365.00
2019-02-08T21:18:28.886Z,99356.00
2019-02-08T21:20:59.186Z,99349.00
2019-02-08T21:23:29.517Z,99354.00
2019-02-08T21:25:59.894Z,99351.00
2019-02-08T21:28:30.221Z,99362.00
2019-02-08T21:31:00.541Z,99362.00
2019-02-08T21:33:30.891Z,99351.00
2019-02-08T21:36:01.228Z,99358.00
2019-02-08T21:38:31.627Z,99344.00
2019-02-08T21:41:01.931Z,99353.00
2019-02-08T21:43:32.675Z,99334.00
2019-02-08T21:46:03.410Z,99337.00
2019-02-08T21:48:33.775Z,99346.00
2019-02-08T21:51:04.094Z,99330.00
2019-02-08T21:53:34.434Z,99337.00
2019-02-08T21:56:05.130Z,99311.00
2019-02-08T21:58:35.522Z,99326.00
2019-02-08T22:01:07.735Z,99319.00
2019-02-08T22:03:38.141Z,99323.00
2019-02-08T22:06:11.234Z,99319.00
2019-02-08T22:08:42.156Z,99318.00
2019-02-08T22:11:12.646Z,99321.00
2019-02-08T22:13:43.941Z,99314.00
2019-02-08T22:16:14.788Z,99313.00
2019-02-08T22:18:45.081Z,99310.00
2019-02-08T22:21:15.662Z,99305.00
2019-02-08T22:23:46.374Z,99292.00
2019-02-08T22:26:16.722Z,99288.00
2019-02-08T22:28:47.063Z,99272.00
2019-02-08T22:31:17.405Z,99290.00
2019-02-08T22:33:47.971Z,99277.00
2019-02-08T22:36:18.615Z,99271.00
2019-02-08T22:38:48.894Z,99284.00
2019-02-08T22:41:19.483Z,99274.00
2019-02-08T22:43:50.183Z,99282.00
2019-02-08T22:46:20.515Z,99269.00
2019-02-08T22:48:54.888Z,99267.00
2019-02-08T22:51:25.258Z,99268.00
2019-02-08T22:53:55.612Z,99260.00
2019-02-08T22:56:26.243Z,99261.00
2019-02-08T22:58:56.810Z,99247.00
2019-02-08T23:01:34.007Z,99249.00
2019-02-08T23:04:06.699Z,99256.00
2019-02-08T23:06:44.435Z,99237.00
2019-02-08T23:09:21.035Z,99255.00
2019-02-08T23:11:51.465Z,99240.00
2019-02-08T23:14:22.234Z,99240.00
2019-02-08T23:16:52.617Z,99236.00
2019-02-08T23:19:23.185Z,99247.00
2019-02-08T23:21:55.175Z,99236.00
2019-02-08T23:24:25.961Z,99252.00
2019-02-08T23:26:56.534Z,99257.00
2019-02-08T23:29:30.263Z,99256.00
2019-02-08T23:31:58.997Z,99239.00
2019-02-08T23:34:29.385Z,99236.00
2019-02-08T23:37:00.058Z,99228.00
2019-02-08T23:39:30.354Z,99220.00
2019-02-08T23:42:00.985Z,99225.00
2019-02-08T23:44:31.579Z,99229.00
2019-02-08T23:47:02.170Z,99214.00
2019-02-08T23:49:32.968Z,99210.00
2019-02-08T23:52:03.331Z,99217.00
2019-02-08T23:54:33.644Z,99218.00
2019-02-08T23:57:03.949Z,99219.00
2019-02-08T23:59:38.153Z,99223.00
